sensor_id;sensor_type;location;lat;lon;timestamp;P1;durP1;ratioP1;P2;durP2;ratioP2
12072;SDS011;6098;49.004;8.372;2022-09-09T00:05:04;4.39;;;1.96;;
12072;SDS011;6098;49.004;8.372;2022-09-09T00:20:14;4.20;;;1.86;;
12072;SDS011;6098;49.004;8.372;2022-09-09T01:50:44;3.02;;;1.11;;
12072;SDS011;6098;49.004;8.372;2022-09-09T02:20:32;3.26;;;1.16;;
12072;SDS011;6098;49.004;8.372;2022-09-09T02:35:24;2.53;;;1.06;;
12072;SDS011;6098;49.004;8.372;2022-09-09T03:05:31;5.94;;;1.20;;
12072;SDS011;6098;49.004;8.372;2022-09-09T03:20:23;1.63;;;1.10;;
12072;SDS011;6098;49.004;8.372;2022-09-09T03:35:14;2.98;;;1.02;;
12072;SDS011;6098;49.004;8.372;2022-09-09T03:50:06;2.78;;;1.09;;
12072;SDS011;6098;49.004;8.372;2022-09-09T04:04:57;1.49;;;0.90;;
12072;SDS011;6098;49.004;8.372;2022-09-09T04:19:49;2.00;;;1.24;;
12072;SDS011;6098;49.004;8.372;2022-09-09T04:34:41;2.73;;;1.12;;
12072;SDS011;6098;49.004;8.372;2022-09-09T04:49:33;2.90;;;1.36;;
12072;SDS011;6098;49.004;8.372;2022-09-09T05:04:24;3.41;;;1.62;;
12072;SDS011;6098;49.004;8.372;2022-09-09T05:19:17;2.54;;;1.21;;
12072;SDS011;6098;49.004;8.372;2022-09-09T05:34:08;2.97;;;1.28;;
12072;SDS011;6098;49.004;8.372;2022-09-09T05:49:01;2.40;;;1.52;;
12072;SDS011;6098;49.004;8.372;2022-09-09T06:03:53;5.32;;;2.29;;
12072;SDS011;6098;49.004;8.372;2022-09-09T06:18:44;2.96;;;1.16;;
12072;SDS011;6098;49.004;8.372;2022-09-09T06:33:39;2.73;;;1.28;;
12072;SDS011;6098;49.004;8.372;2022-09-09T06:48:34;4.31;;;1.43;;
12072;SDS011;6098;49.004;8.372;2022-09-09T07:03:26;3.27;;;1.57;;
12072;SDS011;6098;49.004;8.372;2022-09-09T07:18:19;4.01;;;1.38;;
12072;SDS011;6098;49.004;8.372;2022-09-09T07:33:10;5.59;;;1.50;;
12072;SDS011;6098;49.004;8.372;2022-09-09T07:48:02;3.38;;;1.40;;
12072;SDS011;6098;49.004;8.372;2022-09-09T08:02:54;4.64;;;1.10;;
12072;SDS011;6098;49.004;8.372;2022-09-09T08:17:46;4.40;;;1.43;;
12072;SDS011;6098;49.004;8.372;2022-09-09T08:32:40;4.13;;;1.17;;
12072;SDS011;6098;49.004;8.372;2022-09-09T09:02:49;5.78;;;1.49;;
12072;SDS011;6098;49.004;8.372;2022-09-09T09:17:38;4.72;;;1.50;;
12072;SDS011;6098;49.004;8.372;2022-09-09T09:32:31;2.47;;;1.13;;
12072;SDS011;6098;49.004;8.372;2022-09-09T09:47:22;5.31;;;1.30;;
12072;SDS011;6098;49.004;8.372;2022-09-09T10:02:14;4.01;;;1.97;;
12072;SDS011;6098;49.004;8.372;2022-09-09T11:03:06;3.54;;;0.90;;
12072;SDS011;6098;49.004;8.372;2022-09-09T11:17:59;3.07;;;1.26;;
12072;SDS011;6098;49.004;8.372;2022-09-09T11:48:05;3.54;;;1.45;;
12072;SDS011;6098;49.004;8.372;2022-09-09T12:03:02;2.86;;;1.05;;
12072;SDS011;6098;49.004;8.372;2022-09-09T12:17:57;2.16;;;1.23;;
12072;SDS011;6098;49.004;8.372;2022-09-09T12:32:59;2.33;;;1.20;;
12072;SDS011;6098;49.004;8.372;2022-09-09T12:47:45;2.69;;;0.85;;
12072;SDS011;6098;49.004;8.372;2022-09-09T13:02:45;7.20;;;1.56;;
12072;SDS011;6098;49.004;8.372;2022-09-09T13:17:37;3.14;;;1.08;;
12072;SDS011;6098;49.004;8.372;2022-09-09T13:32:29;3.91;;;1.10;;
12072;SDS011;6098;49.004;8.372;2022-09-09T13:47:21;2.21;;;1.10;;
12072;SDS011;6098;49.004;8.372;2022-09-09T14:02:16;6.24;;;1.36;;
12072;SDS011;6098;49.004;8.372;2022-09-09T14:17:09;10.07;;;1.70;;
12072;SDS011;6098;49.004;8.372;2022-09-09T14:32:02;6.62;;;1.97;;
12072;SDS011;6098;49.004;8.372;2022-09-09T14:46:53;4.66;;;2.69;;
12072;SDS011;6098;49.004;8.372;2022-09-09T15:01:45;6.03;;;2.23;;
12072;SDS011;6098;49.004;8.372;2022-09-09T15:16:37;6.09;;;2.53;;
12072;SDS011;6098;49.004;8.372;2022-09-09T15:31:30;4.98;;;2.07;;
12072;SDS011;6098;49.004;8.372;2022-09-09T15:46:23;4.26;;;1.88;;
12072;SDS011;6098;49.004;8.372;2022-09-09T16:01:37;2.77;;;1.40;;
12072;SDS011;6098;49.004;8.372;2022-09-09T16:16:28;3.74;;;1.86;;
12072;SDS011;6098;49.004;8.372;2022-09-09T16:31:20;2.74;;;1.21;;
12072;SDS011;6098;49.004;8.372;2022-09-09T16:46:14;3.19;;;0.97;;
12072;SDS011;6098;49.004;8.372;2022-09-09T17:01:08;2.33;;;1.37;;
12072;SDS011;6098;49.004;8.372;2022-09-09T17:16:03;3.41;;;1.10;;
12072;SDS011;6098;49.004;8.372;2022-09-09T17:31:13;3.90;;;1.36;;
12072;SDS011;6098;49.004;8.372;2022-09-09T17:46:14;3.48;;;1.84;;
12072;SDS011;6098;49.004;8.372;2022-09-09T18:01:12;5.47;;;2.20;;
12072;SDS011;6098;49.004;8.372;2022-09-09T18:16:05;6.41;;;2.06;;
12072;SDS011;6098;49.004;8.372;2022-09-09T18:30:54;3.49;;;1.80;;
12072;SDS011;6098;49.004;8.372;2022-09-09T18:45:45;1.67;;;1.22;;
12072;SDS011;6098;49.004;8.372;2022-09-09T19:00:37;3.47;;;1.61;;
12072;SDS011;6098;49.004;8.372;2022-09-09T19:15:29;4.32;;;1.62;;
12072;SDS011;6098;49.004;8.372;2022-09-09T19:30:21;5.37;;;1.91;;
12072;SDS011;6098;49.004;8.372;2022-09-09T19:45:12;5.79;;;2.54;;
12072;SDS011;6098;49.004;8.372;2022-09-09T20:00:04;2.36;;;2.16;;
12072;SDS011;6098;49.004;8.372;2022-09-09T20:14:57;5.53;;;3.57;;
12072;SDS011;6098;49.004;8.372;2022-09-09T20:29:49;5.78;;;2.82;;
12072;SDS011;6098;49.004;8.372;2022-09-09T20:44:41;5.84;;;3.46;;
12072;SDS011;6098;49.004;8.372;2022-09-09T20:59:32;6.70;;;3.71;;
12072;SDS011;6098;49.004;8.372;2022-09-09T21:14:24;5.29;;;3.33;;
12072;SDS011;6098;49.004;8.372;2022-09-09T21:29:15;5.26;;;2.56;;
12072;SDS011;6098;49.004;8.372;2022-09-09T21:44:07;4.19;;;1.90;;
12072;SDS011;6098;49.004;8.372;2022-09-09T21:58:58;5.32;;;1.43;;
12072;SDS011;6098;49.004;8.372;2022-09-09T22:14:02;1.56;;;1.03;;
12072;SDS011;6098;49.004;8.372;2022-09-09T22:28:54;1.94;;;1.20;;
12072;SDS011;6098;49.004;8.372;2022-09-09T22:43:46;1.86;;;1.44;;
12072;SDS011;6098;49.004;8.372;2022-09-09T22:58:38;5.06;;;1.60;;
12072;SDS011;6098;49.004;8.372;2022-09-09T23:13:30;4.29;;;1.97;;
12072;SDS011;6098;49.004;8.372;2022-09-09T23:28:22;5.18;;;3.02;;
12072;SDS011;6098;49.004;8.372;2022-09-09T23:43:14;2.62;;;0.98;;
12072;SDS011;6098;49.004;8.372;2022-09-09T23:58:06;1.74;;;0.78;;
